Time;durP1;ratioP1;P1;durP2;ratioP2;P2;SDS_P1;SDS_P2;PMS_P1;PMS_P2;Temp;Humidity;BMP_temperature;BMP_pressure;BME280_temperature;BME280_humidity;BME280_pressure;Samples;Min_cycle;Max_cycle;Signal;HPM_P1;HPM_P2
2022/03/19 00:02:05;;;;;;;225.00;92.03;;;;;;;;;;6249212;28;20543;-65
2022/03/19 00:05:08;;;;;;;239.98;106.38;;;;;;;;;;6225991;28;20045;-64
2022/03/19 00:08:09;;;;;;;246.88;100.10;;;;;;;;;;6243573;28;20036;-64
2022/03/19 00:11:09;;;;;;;168.65;71.30;;;;;;;;;;6242994;28;20062;-64
2022/03/19 00:14:12;;;;;;;162.40;63.42;;;;;;;;;;6242885;28;20061;-64
2022/03/19 00:17:12;;;;;;;130.52;56.53;;;;;;;;;;6231852;28;20428;-65
2022/03/19 00:20:12;;;;;;;139.63;60.45;;;;;;;;;;6218246;28;20076;-65
2022/03/19 00:23:14;;;;;;;149.82;62.22;;;;;;;;;;6218634;28;20049;-65
2022/03/19 00:26:16;;;;;;;143.07;60.10;;;;;;;;;;6218694;28;20029;-65
2022/03/19 00:29:16;;;;;;;135.55;57.78;;;;;;;;;;6237352;28;20060;-65
2022/03/19 00:32:17;;;;;;;129.55;54.25;;;;;;;;;;6242027;28;20017;-65
2022/03/19 00:35:17;;;;;;;117.95;52.38;;;;;;;;;;6243388;28;20409;-65
2022/03/19 00:38:17;;;;;;;130.48;56.65;;;;;;;;;;6242508;28;20025;-65
2022/03/19 00:41:18;;;;;;;104.82;48.22;;;;;;;;;;6231963;28;20092;-66
2022/03/19 00:44:21;;;;;;;109.07;48.50;;;;;;;;;;6232016;28;20072;-65
2022/03/19 00:47:21;;;;;;;114.30;48.97;;;;;;;;;;6236465;28;20025;-65
2022/03/19 00:50:21;;;;;;;101.50;47.25;;;;;;;;;;6242015;28;20500;-65
2022/03/19 00:53:22;;;;;;;110.45;47.53;;;;;;;;;;6221403;28;20045;-65
2022/03/19 00:56:22;;;;;;;131.07;57.28;;;;;;;;;;6230887;28;20452;-65
2022/03/19 00:59:22;;;;;;;127.00;58.88;;;;;;;;;;6267373;28;20087;-65
2022/03/19 01:02:23;;;;;;;211.88;90.38;;;;;;;;;;6245611;28;20025;-65
2022/03/19 01:05:23;;;;;;;177.48;82.00;;;;;;;;;;6242141;28;20358;-65
2022/03/19 01:08:24;;;;;;;106.63;46.70;;;;;;;;;;6242433;28;20053;-66
2022/03/19 01:11:24;;;;;;;141.98;61.33;;;;;;;;;;6228277;28;20026;-65
2022/03/19 01:14:24;;;;;;;130.07;57.90;;;;;;;;;;6236807;28;20063;-65
2022/03/19 01:17:25;;;;;;;170.48;72.38;;;;;;;;;;6247151;28;20021;-65
2022/03/19 01:20:25;;;;;;;159.50;66.60;;;;;;;;;;6245106;28;20021;-66
2022/03/19 01:23:25;;;;;;;145.02;62.80;;;;;;;;;;6246412;28;20022;-66
2022/03/19 01:26:26;;;;;;;140.45;58.25;;;;;;;;;;6246114;28;20489;-65
2022/03/19 01:29:26;;;;;;;154.90;62.92;;;;;;;;;;6246256;28;20025;-65
2022/03/19 01:32:27;;;;;;;148.77;57.72;;;;;;;;;;6242769;28;20709;-65
2022/03/19 01:35:27;;;;;;;134.05;58.17;;;;;;;;;;6241145;28;20021;-66
2022/03/19 01:38:27;;;;;;;135.65;58.90;;;;;;;;;;6220027;28;20105;-65
2022/03/19 01:41:27;;;;;;;111.05;45.85;;;;;;;;;;6221601;28;20374;-66
2022/03/19 01:44:28;;;;;;;99.05;47.28;;;;;;;;;;6221505;28;20045;-66
2022/03/19 01:47:29;;;;;;;130.90;52.38;;;;;;;;;;6220569;28;20014;-66
2022/03/19 01:50:29;;;;;;;119.50;54.28;;;;;;;;;;6221358;28;20037;-66
2022/03/19 01:53:30;;;;;;;138.93;59.40;;;;;;;;;;6222114;28;20074;-66
2022/03/19 01:56:30;;;;;;;190.63;76.10;;;;;;;;;;6220314;28;20018;-66
2022/03/19 01:59:31;;;;;;;158.18;68.13;;;;;;;;;;6219963;28;20033;-66
2022/03/19 02:02:32;;;;;;;147.77;67.22;;;;;;;;;;6243651;28;20036;-66
2022/03/19 02:05:32;;;;;;;140.65;53.72;;;;;;;;;;6245971;28;20025;-66
2022/03/19 02:08:33;;;;;;;205.02;79.25;;;;;;;;;;6245594;28;20025;-66
2022/03/19 02:11:34;;;;;;;134.98;57.97;;;;;;;;;;6245937;28;20045;-66
2022/03/19 02:14:38;;;;;;;99.15;39.85;;;;;;;;;;6245580;28;20033;-66
2022/03/19 02:17:39;;;;;;;127.25;51.45;;;;;;;;;;6236123;28;20393;-66
2022/03/19 02:20:39;;;;;;;134.73;52.40;;;;;;;;;;6225034;28;20022;-66
2022/03/19 02:26:59;;;;;;;156.93;66.40;;;;;;;;;;6245011;28;20061;-66
2022/03/19 02:30:00;;;;;;;179.07;75.80;;;;;;;;;;6245371;28;20021;-66
2022/03/19 02:33:00;;;;;;;174.70;69.95;;;;;;;;;;6238503;28;20095;-66
2022/03/19 02:36:00;;;;;;;164.75;74.05;;;;;;;;;;6245279;28;20103;-66
2022/03/19 02:39:07;;;;;;;149.10;67.60;;;;;;;;;;6244153;28;20056;-66
2022/03/19 02:42:08;;;;;;;136.68;65.07;;;;;;;;;;6232599;28;20017;-66
2022/03/19 02:45:09;;;;;;;153.20;67.35;;;;;;;;;;6239710;28;20523;-66
2022/03/19 02:48:10;;;;;;;165.40;71.07;;;;;;;;;;6243914;28;20091;-66
2022/03/19 02:51:12;;;;;;;199.02;77.25;;;;;;;;;;6243950;28;20022;-66
2022/03/19 02:54:13;;;;;;;145.95;62.45;;;;;;;;;;6243003;28;20053;-66
2022/03/19 02:57:14;;;;;;;164.02;70.20;;;;;;;;;;6257529;28;20032;-66
2022/03/19 03:00:14;;;;;;;171.55;71.50;;;;;;;;;;6265289;28;20045;-66
2022/03/19 03:03:14;;;;;;;163.73;67.88;;;;;;;;;;6238400;28;20021;-66
2022/03/19 03:06:15;;;;;;;131.15;52.67;;;;;;;;;;6218410;28;20028;-66
2022/03/19 03:09:17;;;;;;;157.82;70.43;;;;;;;;;;6230994;28;20109;-66
2022/03/19 03:12:18;;;;;;;175.07;72.60;;;;;;;;;;6242990;28;20029;-66
2022/03/19 03:15:18;;;;;;;106.97;42.53;;;;;;;;;;6243391;28;20036;-66
2022/03/19 03:18:19;;;;;;;214.85;85.93;;;;;;;;;;6244194;28;20026;-66
2022/03/19 03:21:19;;;;;;;222.67;87.00;;;;;;;;;;6243348;28;20513;-66
2022/03/19 03:24:20;;;;;;;204.82;85.07;;;;;;;;;;6243151;28;20454;-66
2022/03/19 03:27:21;;;;;;;228.67;91.70;;;;;;;;;;6243689;28;20017;-66
2022/03/19 03:30:21;;;;;;;218.80;90.25;;;;;;;;;;6235681;28;20025;-66
2022/03/19 03:33:22;;;;;;;209.65;86.55;;;;;;;;;;6242864;28;20025;-66
2022/03/19 03:36:23;;;;;;;208.43;82.88;;;;;;;;;;6243064;28;20477;-66
2022/03/19 03:39:23;;;;;;;177.93;72.53;;;;;;;;;;6243781;28;20044;-66
2022/03/19 03:42:23;;;;;;;148.35;62.35;;;;;;;;;;6241522;28;20104;-66
2022/03/19 03:45:23;;;;;;;169.33;70.40;;;;;;;;;;6243811;28;20029;-66
2022/03/19 03:48:24;;;;;;;170.53;70.63;;;;;;;;;;6243377;28;20392;-66
2022/03/19 03:51:24;;;;;;;195.33;86.83;;;;;;;;;;6242956;28;20033;-66
2022/03/19 03:54:25;;;;;;;193.30;83.10;;;;;;;;;;6242423;28;20072;-66
2022/03/19 03:57:25;;;;;;;176.40;80.35;;;;;;;;;;6258102;28;20020;-66
2022/03/19 04:00:26;;;;;;;177.27;82.13;;;;;;;;;;6246660;28;20025;-66
2022/03/19 04:03:26;;;;;;;183.13;72.20;;;;;;;;;;6242853;28;20465;-66
2022/03/19 04:06:26;;;;;;;187.73;80.93;;;;;;;;;;6242824;28;20014;-66
2022/03/19 04:09:27;;;;;;;189.50;84.20;;;;;;;;;;6242817;28;20032;-66
2022/03/19 04:12:27;;;;;;;227.47;103.93;;;;;;;;;;6242769;28;20032;-66
2022/03/19 04:15:27;;;;;;;188.23;79.03;;;;;;;;;;6243623;28;20021;-66
2022/03/19 04:18:27;;;;;;;178.02;79.40;;;;;;;;;;6241736;28;20055;-66
2022/03/19 04:21:28;;;;;;;172.50;79.07;;;;;;;;;;6242174;28;20500;-66
2022/03/19 04:24:28;;;;;;;170.93;70.80;;;;;;;;;;6242985;28;20026;-66
2022/03/19 04:27:28;;;;;;;182.00;77.07;;;;;;;;;;6243307;28;20021;-66
2022/03/19 04:30:29;;;;;;;176.88;79.47;;;;;;;;;;6243256;28;20113;-66
2022/03/19 04:33:29;;;;;;;171.80;75.53;;;;;;;;;;6242497;28;20018;-66
2022/03/19 04:36:30;;;;;;;182.07;79.33;;;;;;;;;;6241996;28;20040;-66
2022/03/19 04:39:30;;;;;;;165.77;76.27;;;;;;;;;;6242779;28;20537;-66
2022/03/19 04:42:30;;;;;;;170.73;68.93;;;;;;;;;;6240970;28;20141;-66
2022/03/19 04:45:31;;;;;;;74.27;39.13;;;;;;;;;;6240630;28;20072;-66
2022/03/19 04:48:32;;;;;;;92.10;45.38;;;;;;;;;;6243599;28;20021;-66
2022/03/19 04:51:33;;;;;;;92.68;44.53;;;;;;;;;;6246946;28;20047;-66
2022/03/19 04:54:33;;;;;;;82.43;37.57;;;;;;;;;;6246677;28;20176;-66
2022/03/19 04:57:34;;;;;;;98.67;40.33;;;;;;;;;;6263483;28;20047;-66
2022/03/19 05:00:37;;;;;;;111.85;46.05;;;;;;;;;;6265266;28;20067;-66
2022/03/19 05:03:37;;;;;;;100.40;43.63;;;;;;;;;;6246699;28;20029;-66
2022/03/19 05:06:38;;;;;;;115.67;55.47;;;;;;;;;;6246866;28;20381;-66
2022/03/19 05:12:57;;;;;;;129.32;56.28;;;;;;;;;;6229717;28;20033;-66
2022/03/19 05:15:57;;;;;;;58.30;30.37;;;;;;;;;;6222878;28;20072;-66
2022/03/19 05:18:57;;;;;;;78.23;34.57;;;;;;;;;;6225851;28;20113;-66
2022/03/19 05:21:58;;;;;;;68.35;31.55;;;;;;;;;;6246797;28;20056;-66
2022/03/19 05:24:58;;;;;;;81.10;35.10;;;;;;;;;;6245866;28;20028;-66
2022/03/19 05:27:58;;;;;;;73.30;35.03;;;;;;;;;;6245494;28;20060;-66
2022/03/19 05:31:01;;;;;;;81.78;39.15;;;;;;;;;;6244888;28;20049;-66
2022/03/19 05:37:19;;;;;;;67.72;34.10;;;;;;;;;;6244329;28;20037;-67
2022/03/19 05:40:20;;;;;;;63.03;30.15;;;;;;;;;;6238276;28;20036;-67
2022/03/19 05:43:20;;;;;;;71.40;31.55;;;;;;;;;;6231544;28;20018;-67
2022/03/19 05:46:20;;;;;;;64.32;29.73;;;;;;;;;;6234013;28;20017;-67
2022/03/19 05:49:21;;;;;;;60.25;30.38;;;;;;;;;;6243953;28;20021;-67
2022/03/19 05:52:21;;;;;;;56.35;28.10;;;;;;;;;;6237307;28;20046;-66
2022/03/19 05:55:21;;;;;;;48.65;26.25;;;;;;;;;;6241150;28;20035;-65
2022/03/19 05:58:22;;;;;;;50.75;24.92;;;;;;;;;;6240453;28;20388;-66
2022/03/19 06:01:26;;;;;;;54.42;27.40;;;;;;;;;;6238922;28;20412;-66
2022/03/19 06:04:26;;;;;;;51.53;28.08;;;;;;;;;;6233047;28;20077;-65
2022/03/19 06:07:26;;;;;;;48.42;25.38;;;;;;;;;;6232071;28;20026;-66
2022/03/19 06:10:26;;;;;;;44.45;26.00;;;;;;;;;;6233453;28;20017;-66
2022/03/19 06:13:27;;;;;;;50.72;29.35;;;;;;;;;;6227270;28;20026;-66
2022/03/19 06:16:27;;;;;;;51.15;25.33;;;;;;;;;;6230747;28;20026;-66
2022/03/19 06:19:27;;;;;;;45.22;23.83;;;;;;;;;;6219659;28;20348;-66
2022/03/19 06:22:28;;;;;;;44.60;22.08;;;;;;;;;;6219610;28;20030;-66
2022/03/19 06:25:28;;;;;;;45.67;24.35;;;;;;;;;;6226464;28;20358;-66
2022/03/19 06:28:28;;;;;;;48.95;22.98;;;;;;;;;;6236158;28;20038;-67
2022/03/19 06:31:28;;;;;;;41.53;21.83;;;;;;;;;;6243131;28;20461;-66
2022/03/19 06:34:30;;;;;;;42.25;21.15;;;;;;;;;;6243705;28;20076;-66
2022/03/19 06:37:31;;;;;;;43.90;22.92;;;;;;;;;;6243493;28;20018;-66
2022/03/19 06:40:32;;;;;;;45.58;22.08;;;;;;;;;;6231905;28;20510;-66
2022/03/19 06:43:32;;;;;;;39.97;24.05;;;;;;;;;;6230306;28;20386;-66
2022/03/19 06:46:32;;;;;;;41.17;21.80;;;;;;;;;;6226441;28;20034;-66
2022/03/19 06:49:33;;;;;;;34.42;20.23;;;;;;;;;;6245088;28;20465;-66
2022/03/19 06:52:33;;;;;;;34.72;19.50;;;;;;;;;;6239320;28;20046;-66
2022/03/19 06:55:33;;;;;;;36.05;19.30;;;;;;;;;;6222731;28;20030;-66
2022/03/19 06:58:34;;;;;;;39.58;18.98;;;;;;;;;;6268618;28;20036;-66
2022/03/19 07:01:36;;;;;;;34.17;19.80;;;;;;;;;;6245636;28;20088;-66
2022/03/19 07:04:36;;;;;;;;;;;;;;;;;;6243424;28;20021;-66
2022/03/19 07:07:36;;;;;;;38.97;21.35;;;;;;;;;;6241678;28;19916;-66
2022/03/19 07:10:37;;;;;;;33.17;18.80;;;;;;;;;;6240097;28;20151;-66
2022/03/19 07:13:37;;;;;;;37.47;19.63;;;;;;;;;;6240943;28;20006;-66
2022/03/19 07:16:37;;;;;;;33.90;19.70;;;;;;;;;;6241167;28;20389;-66
2022/03/19 07:19:38;;;;;;;36.33;17.63;;;;;;;;;;6242312;28;20074;-66
2022/03/19 07:22:48;;;;;;;36.85;18.33;;;;;;;;;;6242710;28;20481;-66
2022/03/19 07:25:49;;;;;;;34.08;18.20;;;;;;;;;;6221842;28;20048;-66
2022/03/19 07:28:49;;;;;;;28.23;17.30;;;;;;;;;;6242118;28;20029;-66
2022/03/19 07:31:50;;;;;;;34.72;18.65;;;;;;;;;;6243348;28;20035;-66
2022/03/19 07:34:51;;;;;;;28.45;16.38;;;;;;;;;;6241658;28;20025;-66
2022/03/19 07:37:51;;;;;;;29.15;15.95;;;;;;;;;;6227677;28;20060;-66
2022/03/19 07:44:10;;;;;;;28.42;15.32;;;;;;;;;;6240539;28;20099;-67
2022/03/19 07:47:10;;;;;;;28.73;14.82;;;;;;;;;;6241577;28;20144;-66
2022/03/19 07:50:11;;;;;;;22.92;12.52;;;;;;;;;;6229739;28;20137;-66
2022/03/19 07:53:11;;;;;;;21.70;12.77;;;;;;;;;;6220235;28;20087;-66
2022/03/19 07:56:12;;;;;;;23.67;12.68;;;;;;;;;;6223179;28;20022;-66
2022/03/19 07:59:12;;;;;;;24.77;10.80;;;;;;;;;;6224597;28;20441;-66
2022/03/19 08:02:12;;;;;;;20.77;11.52;;;;;;;;;;6231538;28;20037;-66
2022/03/19 08:05:13;;;;;;;16.10;9.68;;;;;;;;;;6229417;28;20473;-66
2022/03/19 08:08:13;;;;;;;19.13;10.63;;;;;;;;;;6237343;28;20331;-66
2022/03/19 08:11:14;;;;;;;18.88;9.13;;;;;;;;;;6235736;28;20104;-66
2022/03/19 08:14:15;;;;;;;17.48;10.63;;;;;;;;;;6226725;28;20029;-66
2022/03/19 08:17:15;;;;;;;21.15;11.82;;;;;;;;;;6226877;28;20323;-66
2022/03/19 08:20:15;;;;;;;19.02;10.15;;;;;;;;;;6216950;28;20033;-66
2022/03/19 08:23:16;;;;;;;20.85;9.85;;;;;;;;;;6217529;28;20033;-66
2022/03/19 08:26:16;;;;;;;18.92;8.93;;;;;;;;;;6221844;28;20531;-66
2022/03/19 08:29:16;;;;;;;23.02;11.77;;;;;;;;;;6223550;28;20030;-66
2022/03/19 08:32:16;;;;;;;18.60;9.73;;;;;;;;;;6222064;28;20025;-66
2022/03/19 08:35:17;;;;;;;37.95;11.48;;;;;;;;;;6216212;28;20414;-66
2022/03/19 08:41:36;;;;;;;20.42;10.23;;;;;;;;;;6218824;28;20030;-66
2022/03/19 08:44:36;;;;;;;21.02;9.07;;;;;;;;;;6218629;28;20339;-66
2022/03/19 08:47:36;;;;;;;24.35;12.45;;;;;;;;;;6215682;28;20033;-65
2022/03/19 08:50:37;;;;;;;21.35;11.38;;;;;;;;;;6216451;28;20769;-66
2022/03/19 08:53:37;;;;;;;21.83;9.40;;;;;;;;;;6217398;28;20084;-66
2022/03/19 08:56:38;;;;;;;16.25;9.18;;;;;;;;;;6217331;28;21297;-66
2022/03/19 08:59:38;;;;;;;21.92;10.57;;;;;;;;;;6217306;28;20025;-66
2022/03/19 09:02:38;;;;;;;19.95;10.45;;;;;;;;;;6223191;28;20060;-66
2022/03/19 09:05:38;;;;;;;23.70;11.50;;;;;;;;;;6219714;28;20511;-66
2022/03/19 09:08:39;;;;;;;18.15;9.90;;;;;;;;;;6224358;28;20030;-66
2022/03/19 09:11:39;;;;;;;15.25;8.68;;;;;;;;;;6228055;28;20413;-67
2022/03/19 09:14:39;;;;;;;20.70;10.30;;;;;;;;;;6233000;28;20029;-66
2022/03/19 09:17:40;;;;;;;17.83;9.93;;;;;;;;;;6223108;28;20021;-66
2022/03/19 09:20:40;;;;;;;14.90;7.53;;;;;;;;;;6224980;28;20021;-66
2022/03/19 09:23:41;;;;;;;15.77;8.85;;;;;;;;;;6241019;28;20473;-66
2022/03/19 09:26:42;;;;;;;15.85;7.55;;;;;;;;;;6241424;28;20108;-66
2022/03/19 09:29:42;;;;;;;15.90;8.05;;;;;;;;;;6238484;28;20428;-66
2022/03/19 09:32:42;;;;;;;11.77;6.82;;;;;;;;;;6236520;28;20397;-66
2022/03/19 09:35:43;;;;;;;11.90;8.10;;;;;;;;;;6238717;28;20013;-66
2022/03/19 09:38:43;;;;;;;21.73;9.70;;;;;;;;;;6240724;28;20518;-66
2022/03/19 09:41:43;;;;;;;17.55;8.60;;;;;;;;;;6237801;28;20447;-66
2022/03/19 09:44:44;;;;;;;17.90;8.15;;;;;;;;;;6238147;28;20025;-66
2022/03/19 09:47:44;;;;;;;14.70;7.47;;;;;;;;;;6243372;28;20017;-66
2022/03/19 09:50:45;;;;;;;17.58;7.97;;;;;;;;;;6244217;28;20366;-66
2022/03/19 09:53:46;;;;;;;16.27;8.82;;;;;;;;;;6243698;28;20602;-66
2022/03/19 09:56:46;;;;;;;15.93;10.90;;;;;;;;;;6228461;28;20151;-66
2022/03/19 09:59:47;;;;;;;16.60;8.48;;;;;;;;;;6237313;28;20037;-67
2022/03/19 10:02:53;;;;;;;28.95;15.60;;;;;;;;;;6236466;28;20021;-67
2022/03/19 10:09:21;;;;;;;16.48;6.45;;;;;;;;;;6247003;28;20033;-67
2022/03/19 10:12:30;;;;;;;15.07;7.47;;;;;;;;;;6245902;28;20021;-67
2022/03/19 10:15:31;;;;;;;16.10;7.45;;;;;;;;;;6242054;28;20038;-67
2022/03/19 10:18:31;;;;;;;22.63;13.85;;;;;;;;;;6228864;28;20026;-67
2022/03/19 10:21:36;;;;;;;27.40;15.10;;;;;;;;;;6240774;28;20577;-67
2022/03/19 10:24:37;;;;;;;20.63;11.40;;;;;;;;;;6230760;28;20021;-67
2022/03/19 10:27:38;;;;;;;21.10;9.48;;;;;;;;;;6241115;28;20121;-67
2022/03/19 10:30:39;;;;;;;14.37;8.07;;;;;;;;;;6231240;28;20026;-67
2022/03/19 10:33:39;;;;;;;24.20;12.60;;;;;;;;;;6228202;28;20501;-67
2022/03/19 10:36:41;;;;;;;13.70;7.43;;;;;;;;;;6214995;28;20072;-67
2022/03/19 10:39:45;;;;;;;26.65;15.25;;;;;;;;;;6227181;28;20052;-67
2022/03/19 10:42:46;;;;;;;16.38;8.30;;;;;;;;;;6225379;28;20378;-67
2022/03/19 10:45:50;;;;;;;21.80;9.05;;;;;;;;;;6225813;28;20030;-67
2022/03/19 10:48:54;;;;;;;14.88;7.93;;;;;;;;;;6224994;28;20058;-67
2022/03/19 10:51:58;;;;;;;16.70;9.57;;;;;;;;;;6224002;28;20460;-67
2022/03/19 10:55:03;;;;;;;17.20;9.20;;;;;;;;;;6224328;28;20555;-67
2022/03/19 10:58:03;;;;;;;14.40;7.63;;;;;;;;;;6223998;28;20021;-67
2022/03/19 11:01:04;;;;;;;17.60;9.48;;;;;;;;;;6231180;28;20288;-67
2022/03/19 11:04:06;;;;;;;14.40;7.68;;;;;;;;;;6204830;28;20041;-67
2022/03/19 11:07:06;;;;;;;14.30;7.93;;;;;;;;;;6238539;28;20029;-67
2022/03/19 11:10:07;;;;;;;12.70;5.95;;;;;;;;;;6238850;28;20029;-67
2022/03/19 11:13:08;;;;;;;15.38;7.03;;;;;;;;;;6238861;28;20047;-67
2022/03/19 11:16:09;;;;;;;14.38;6.40;;;;;;;;;;6237597;28;20029;-67
2022/03/19 11:19:10;;;;;;;13.15;7.50;;;;;;;;;;6237829;28;20060;-67
2022/03/19 11:22:10;;;;;;;15.27;8.30;;;;;;;;;;6240670;28;20415;-67
2022/03/19 11:25:11;;;;;;;14.05;6.80;;;;;;;;;;6240191;28;20013;-67
2022/03/19 11:28:14;;;;;;;19.92;9.77;;;;;;;;;;6234620;28;20030;-67
2022/03/19 11:31:16;;;;;;;19.13;10.00;;;;;;;;;;6231317;28;20023;-67
2022/03/19 11:34:17;;;;;;;18.10;7.10;;;;;;;;;;6236762;28;20021;-67
2022/03/19 11:37:17;;;;;;;33.08;16.88;;;;;;;;;;6239979;28;20515;-67
2022/03/19 11:40:18;;;;;;;22.05;12.38;;;;;;;;;;6241212;28;20108;-67
2022/03/19 11:43:24;;;;;;;31.40;17.40;;;;;;;;;;6236220;28;20021;-67
2022/03/19 11:46:24;;;;;;;13.48;6.72;;;;;;;;;;6242045;28;20268;-67
2022/03/19 11:49:43;;;;;;;47.47;22.35;;;;;;;;;;6240937;28;20029;-67
2022/03/19 11:52:44;;;;;;;15.35;9.60;;;;;;;;;;6236661;28;20037;-67
2022/03/19 11:55:44;;;;;;;12.57;6.90;;;;;;;;;;6240757;28;20425;-67
2022/03/19 11:58:48;;;;;;;16.10;7.72;;;;;;;;;;6239670;28;20100;-67
2022/03/19 12:01:58;;;;;;;12.15;7.20;;;;;;;;;;6239525;28;21452;-67
2022/03/19 12:04:58;;;;;;;29.58;14.00;;;;;;;;;;6225083;28;20491;-67
2022/03/19 12:08:06;;;;;;;19.35;11.45;;;;;;;;;;6217563;28;20022;-67
2022/03/19 12:11:14;;;;;;;14.38;7.55;;;;;;;;;;6219859;28;20087;-67
2022/03/19 12:14:22;;;;;;;11.75;7.57;;;;;;;;;;6227419;28;20042;-67
2022/03/19 12:17:28;;;;;;;14.77;8.13;;;;;;;;;;6226489;28;20034;-67
2022/03/19 12:20:28;;;;;;;14.05;6.90;;;;;;;;;;6224865;28;20026;-67
2022/03/19 12:23:38;;;;;;;12.63;7.93;;;;;;;;;;6231358;28;20022;-67
2022/03/19 12:26:49;;;;;;;13.48;6.70;;;;;;;;;;6225245;28;20033;-67
2022/03/19 12:29:50;;;;;;;14.88;8.50;;;;;;;;;;6218345;28;20054;-67
2022/03/19 12:32:54;;;;;;;12.15;6.13;;;;;;;;;;6221526;28;20034;-67
2022/03/19 12:35:58;;;;;;;20.10;10.70;;;;;;;;;;6214551;28;20040;-67
2022/03/19 12:39:03;;;;;;;9.55;5.97;;;;;;;;;;6216061;28;20397;-67
2022/03/19 12:42:04;;;;;;;26.65;13.10;;;;;;;;;;6220535;28;20014;-67
2022/03/19 12:45:04;;;;;;;13.32;6.72;;;;;;;;;;6227920;28;20030;-67
2022/03/19 12:48:12;;;;;;;15.05;8.10;;;;;;;;;;6240983;28;20057;-67
2022/03/19 12:51:21;;;;;;;13.20;7.45;;;;;;;;;;6242016;28;20083;-67
2022/03/19 12:54:25;;;;;;;13.98;6.35;;;;;;;;;;6222074;28;20057;-67
2022/03/19 12:57:31;;;;;;;14.00;7.45;;;;;;;;;;6241380;28;20430;-67
2022/03/19 13:00:31;;;;;;;13.40;9.68;;;;;;;;;;6237094;28;20400;-67
2022/03/19 13:03:31;;;;;;;16.42;9.13;;;;;;;;;;6238782;28;20017;-67
2022/03/19 13:06:36;;;;;;;14.20;8.00;;;;;;;;;;6236688;28;20413;-67
2022/03/19 13:09:39;;;;;;;13.48;6.57;;;;;;;;;;6237239;28;20276;-67
2022/03/19 13:12:39;;;;;;;17.73;7.75;;;;;;;;;;6240171;28;20025;-67
2022/03/19 13:15:49;;;;;;;14.98;8.18;;;;;;;;;;6234729;28;20550;-67
2022/03/19 13:18:55;;;;;;;14.73;7.75;;;;;;;;;;6242200;28;20030;-67
2022/03/19 13:21:56;;;;;;;13.38;7.13;;;;;;;;;;6224062;28;20397;-67
2022/03/19 13:24:56;;;;;;;21.48;8.45;;;;;;;;;;6226564;28;20105;-67
2022/03/19 13:28:03;;;;;;;13.98;9.30;;;;;;;;;;6233008;28;20056;-67
2022/03/19 13:31:04;;;;;;;14.98;8.88;;;;;;;;;;6236988;28;20022;-67
2022/03/19 13:34:04;;;;;;;17.30;9.30;;;;;;;;;;6237740;28;20049;-67
2022/03/19 13:37:06;;;;;;;15.82;8.43;;;;;;;;;;6242180;28;20507;-67
2022/03/19 13:40:07;;;;;;;14.90;7.80;;;;;;;;;;6241473;28;20021;-67
2022/03/19 13:43:08;;;;;;;13.38;8.13;;;;;;;;;;6238425;28;20472;-67
2022/03/19 13:46:15;;;;;;;15.10;9.20;;;;;;;;;;6235682;28;20460;-67
2022/03/19 13:49:17;;;;;;;15.50;8.00;;;;;;;;;;6223775;28;20492;-67
2022/03/19 13:52:35;;;;;;;17.20;7.88;;;;;;;;;;6240164;28;20067;-67
2022/03/19 13:55:38;;;;;;;13.38;7.45;;;;;;;;;;6229893;28;20037;-67
2022/03/19 13:58:38;;;;;;;13.70;7.50;;;;;;;;;;6220575;28;20014;-67
2022/03/19 14:01:39;;;;;;;19.80;6.93;;;;;;;;;;6229690;28;20501;-67
2022/03/19 14:04:39;;;;;;;12.73;8.07;;;;;;;;;;6219636;28;20029;-67
2022/03/19 14:07:40;;;;;;;15.50;6.97;;;;;;;;;;6219682;28;20521;-67
2022/03/19 14:10:42;;;;;;;15.80;7.37;;;;;;;;;;6228207;28;20054;-67
2022/03/19 14:13:44;;;;;;;11.90;7.05;;;;;;;;;;6231054;28;20028;-67
2022/03/19 14:16:55;;;;;;;18.50;9.40;;;;;;;;;;6243254;28;20026;-67
2022/03/19 14:19:55;;;;;;;13.80;7.05;;;;;;;;;;6243737;28;20420;-67
2022/03/19 14:22:55;;;;;;;11.37;7.00;;;;;;;;;;6232618;28;20060;-67
2022/03/19 14:25:55;;;;;;;11.70;6.70;;;;;;;;;;6220848;28;20616;-67
2022/03/19 14:28:57;;;;;;;13.48;6.82;;;;;;;;;;6234939;28;20025;-67
2022/03/19 14:31:58;;;;;;;;;;;;;;;;;;6239202;28;20026;-67
2022/03/19 14:34:58;;;;;;;9.65;6.25;;;;;;;;;;6228579;28;19909;-67
2022/03/19 14:37:58;;;;;;;13.20;6.22;;;;;;;;;;6219438;28;20045;-67
2022/03/19 14:40:59;;;;;;;12.53;7.17;;;;;;;;;;6223672;28;20405;-67
2022/03/19 14:44:00;;;;;;;11.00;6.50;;;;;;;;;;6224240;28;20093;-67
2022/03/19 14:47:00;;;;;;;12.50;6.72;;;;;;;;;;6220719;28;20018;-67
2022/03/19 14:50:01;;;;;;;12.03;7.13;;;;;;;;;;6236665;28;20021;-67
2022/03/19 14:53:01;;;;;;;18.10;7.53;;;;;;;;;;6233341;28;20034;-67
2022/03/19 14:56:02;;;;;;;12.00;7.23;;;;;;;;;;6223175;28;20383;-67
2022/03/19 14:59:03;;;;;;;11.47;6.70;;;;;;;;;;6232638;28;20033;-67
2022/03/19 15:02:04;;;;;;;11.98;6.38;;;;;;;;;;6233008;28;20068;-67
2022/03/19 15:05:04;;;;;;;10.40;6.80;;;;;;;;;;6218476;28;20026;-68
2022/03/19 15:08:05;;;;;;;13.20;7.53;;;;;;;;;;6219204;28;20270;-67
2022/03/19 15:11:05;;;;;;;13.00;7.43;;;;;;;;;;6226427;28;20018;-67
2022/03/19 15:14:06;;;;;;;11.43;7.13;;;;;;;;;;6209967;28;20485;-67
2022/03/19 15:17:06;;;;;;;12.87;7.57;;;;;;;;;;6237220;28;20524;-67
2022/03/19 15:20:09;;;;;;;11.60;6.83;;;;;;;;;;6235482;28;20431;-67
2022/03/19 15:23:10;;;;;;;15.70;8.00;;;;;;;;;;6243212;28;20018;-67
2022/03/19 15:26:10;;;;;;;17.13;9.80;;;;;;;;;;6239271;28;20033;-67
2022/03/19 15:29:10;;;;;;;13.37;7.47;;;;;;;;;;6229927;28;20469;-67
2022/03/19 15:32:10;;;;;;;14.90;8.43;;;;;;;;;;6240153;28;20096;-67
2022/03/19 15:35:11;;;;;;;13.43;7.33;;;;;;;;;;6241505;28;20022;-67
2022/03/19 15:38:13;;;;;;;14.43;7.27;;;;;;;;;;6229532;28;20055;-67
2022/03/19 15:41:22;;;;;;;14.60;8.95;;;;;;;;;;6231801;28;20026;-67
2022/03/19 15:44:22;;;;;;;13.40;6.75;;;;;;;;;;6230880;28;20025;-67
2022/03/19 15:47:24;;;;;;;11.90;6.72;;;;;;;;;;6225017;28;20021;-67
2022/03/19 15:50:24;;;;;;;14.05;7.28;;;;;;;;;;6227457;28;20123;-68
2022/03/19 15:53:24;;;;;;;15.70;7.63;;;;;;;;;;6225679;28;20140;-67
2022/03/19 15:56:26;;;;;;;16.17;9.20;;;;;;;;;;6224493;28;20029;-67
2022/03/19 15:59:26;;;;;;;13.13;7.40;;;;;;;;;;6219606;28;20351;-67
2022/03/19 16:02:26;;;;;;;17.30;8.95;;;;;;;;;;6226854;28;20416;-67
2022/03/19 16:05:27;;;;;;;18.50;9.90;;;;;;;;;;6220346;28;20021;-67
2022/03/19 16:08:27;;;;;;;15.90;9.48;;;;;;;;;;6222601;28;20024;-67
2022/03/19 16:11:27;;;;;;;17.05;8.70;;;;;;;;;;6228686;28;20029;-67
2022/03/19 16:14:27;;;;;;;17.30;8.80;;;;;;;;;;6224899;28;20037;-67
2022/03/19 16:17:29;;;;;;;16.52;7.88;;;;;;;;;;6216098;28;20133;-67
2022/03/19 16:20:30;;;;;;;;;;;;;;;;;;6221083;28;20017;-67
2022/03/19 16:23:30;;;;;;;13.50;7.70;;;;;;;;;;6215274;28;19924;-67
2022/03/19 16:26:30;;;;;;;13.13;7.28;;;;;;;;;;6218331;28;20030;-67
2022/03/19 16:29:30;;;;;;;15.73;7.68;;;;;;;;;;6241482;28;20029;-67
2022/03/19 16:32:31;;;;;;;18.20;9.95;;;;;;;;;;6241396;28;20044;-67
2022/03/19 16:35:32;;;;;;;12.95;6.63;;;;;;;;;;6241672;28;20111;-67
2022/03/19 16:38:33;;;;;;;16.03;8.37;;;;;;;;;;6241614;28;20030;-67
2022/03/19 16:41:33;;;;;;;18.85;9.35;;;;;;;;;;6238198;28;20384;-67
2022/03/19 16:44:33;;;;;;;18.42;9.27;;;;;;;;;;6243017;28;20032;-67
2022/03/19 16:47:34;;;;;;;15.82;8.15;;;;;;;;;;6246572;28;20032;-67
2022/03/19 16:50:34;;;;;;;18.90;10.85;;;;;;;;;;6246249;28;20156;-67
2022/03/19 16:53:34;;;;;;;21.35;9.77;;;;;;;;;;6245806;28;20049;-67
2022/03/19 16:56:35;;;;;;;21.17;9.90;;;;;;;;;;6254095;28;20029;-67
2022/03/19 16:59:35;;;;;;;21.00;9.32;;;;;;;;;;6270964;28;20492;-67
2022/03/19 17:02:36;;;;;;;20.83;9.60;;;;;;;;;;6248040;28;20029;-67
2022/03/19 17:05:37;;;;;;;18.27;9.70;;;;;;;;;;6245602;28;20113;-67
2022/03/19 17:08:37;;;;;;;25.58;10.57;;;;;;;;;;6245242;28;20105;-67
2022/03/19 17:11:37;;;;;;;21.33;10.70;;;;;;;;;;6245961;28;20052;-67
2022/03/19 17:14:37;;;;;;;22.48;9.45;;;;;;;;;;6246088;28;20026;-64
2022/03/19 17:17:38;;;;;;;21.75;10.57;;;;;;;;;;6245597;28;20017;-65
2022/03/19 17:20:38;;;;;;;19.40;10.70;;;;;;;;;;6223559;28;20440;-65
2022/03/19 17:23:39;;;;;;;19.40;10.73;;;;;;;;;;6232968;28;20046;-66
2022/03/19 17:26:39;;;;;;;19.77;10.18;;;;;;;;;;6219563;28;20014;-65
2022/03/19 17:29:39;;;;;;;23.67;10.35;;;;;;;;;;6228445;28;20038;-65
2022/03/19 17:32:43;;;;;;;22.30;11.35;;;;;;;;;;6244803;28;20060;-65
2022/03/19 17:35:43;;;;;;;21.83;10.65;;;;;;;;;;6244127;28;20242;-65
2022/03/19 17:38:43;;;;;;;23.95;12.45;;;;;;;;;;6243306;28;20501;-65
2022/03/19 17:41:43;;;;;;;28.20;14.00;;;;;;;;;;6221990;28;20556;-65
2022/03/19 17:44:44;;;;;;;26.05;12.55;;;;;;;;;;6242680;28;20036;-65
2022/03/19 17:47:44;;;;;;;27.75;14.75;;;;;;;;;;6241600;28;20119;-65
2022/03/19 17:50:45;;;;;;;25.80;14.15;;;;;;;;;;6243480;28;20032;-65
2022/03/19 17:53:45;;;;;;;35.53;15.57;;;;;;;;;;6243197;28;20041;-65
2022/03/19 17:56:45;;;;;;;28.92;13.98;;;;;;;;;;6252906;28;20112;-65
2022/03/19 17:59:45;;;;;;;38.38;13.98;;;;;;;;;;6268210;28;20091;-65